Visalia, CA

9:29 AM PST on November 28, 2014 (GMT -0800)
Shannon Ranch | Change Station
CLOSE
Current Station
Personal Weather Station
Location: Visalia, CA
Elevation: 323 ft
Nearby Weather Stations

Elev 323 ft 36.36 °N, 119.32 °W | Updated 4 seconds ago

Clear
Clear
57.1 °F
Feels Like 57.1 °F
N
2.0
Wind Variable Wind from NNW
Gusts 3.0 mph

Today
High -- | Low -- °F
--% Chance of Precip.
Yesterday
High -- | Low -- °F
Precip. -- in
6:47 AM 4:42 PM
Waxing Crescent, 42% visible
Pressure 30.04 in
Visibility 3.0 miles
Clouds Clear
Dew Point 49 °F
Humidity 73%
Rainfall 0.00 in
Snow Depth Not available.
UV 1.4 out of 12
Pollen 2.10 out of 12
Air Quality Not available.
Flu Activity Not available.
METAR KVIS 281715Z 12003KT 3SM CLR 11/07 A3004 RMK AO1

More Conditions Fewer Conditions

Pressure 30.04 in
Visibility 3.0 miles
Clouds Clear
Dew Point 49 °F
Humidity 73%
Rainfall 0.00 in
Snow Depth Not available.
UV 1.4 out of 12
Pollen 2.10 out of 12
Air Quality Not available.
Flu Activity Not available.
METAR KVIS 281715Z 12003KT 3SM CLR 11/07 A3004 RMK AO1

More Conditions Fewer Conditions

10-Day Weather Forecast

Almanac

Astronomy

Nov. 28, 2014 Rise Set
Actual Time
Civil Twilight
Nautical Twilight
Astronomical Twilight
Moon
Length of Visible Light
Length of Day
Tomorrow will be .
, % of the Moon is Illuminated

Today's Extremes

State Highs State Lows

Community

WunderPhotos

Upload Photos

1,774,244 photos uploaded!

WunderBlogs® & News

Nearby

Air Quality

  Air Quality AQ Index Pollutant
Not available.

Snow Depth

Station Depth Elevation

Earthquake Activity

City Distance Mag. Time & Date
Minimum magnitude displayed is 2.5.

Coastal Water Temperatures

Place Temperature

Nearby Weather Stations